الصفحة الرئيسية
METAR-TAF:

METAR-TAF

مطار :

Kingman, أريزونا, الولايات المتحدة

دائرة عرض: 35-15-28N, خط طول: 113-55-59W, ارتفاع: 1050 متر

مراقبة الطقس الحالي

تاريخ ووقت الإصدار 40 دقيقة قبل الساعة 10:51UTC
رياح هادئة
درجة الحرارة 16°درجة مئوية
الرطوبة 20%
ضغط 1022 hPa
الرؤية: 16.1 كم
سماء صافية

METAR: KIGM 291051Z AUTO 00000KT 10SM CLR 16/M07 A3017 RMK AO2 SLP149 T01611072

زمن: 04:31 (11:31 UTC)


TAF: مفقودة

أرصاد الطقس والتوقعات من أكثر من 4000 مطار (تقارير الطقس للمطار METAR والتنبؤ بالطقس بالمطارTAF).

المحطات المتاحة هي النقط الصفراء والحمراء على الخريطة.

حرك المؤشر فوق النقطة لمعرفة اسم المحطة.

ثم انقر لمعرفة أرصاد وتوقعات الطقس.

لتغيير الخارطة: اضغط على الأزرار الخضراء مع رمز الصليب الأسود للتكبير. على الزر الأخضر مع شرطة للتصغير، أو على الأسهم الخضراء للخرائط المجاورة.


METAR-TAF: